East Detroit, Michigan
Current Conditions -  °F | °C
As of 5:53 AM on Friday 31 Oct 2014 (Local Time) from KDET Reporting Station
Overcast Overcast  
Wind Chill: 42°   Ceiling: 4000
Heat Index: 46°   Visibility: 10mi
Dew Point: 37°   Wind: 7mph
Humidity: 71%   Direction: 230°SW
Pressure: 29.92"   Gusts: NA
Location:  42.4657°N, 82.946°W
Report Text: KDET 310953Z 23006KT 10SM BKN040 OVC055 08/03 A2992 RMK AO2 RAE10 SLP136 P0000 T00780028
Loading
Personal Weather Stations






























Interactive Weather Map
Tropical Storm Tracking
New forecast layout! Learn more

10-Day Weather Forecast

Advertisements
Track Severe Weather on mobile